sensor_id;sensor_type;location;lat;lon;timestamp;pressure;altitude;pressure_sealevel;temperature;humidity
46241;BME280;31961;52.416;-0.732;2022-08-04T00:01:35;100474.49;;;18.00;46.26
46241;BME280;31961;52.416;-0.732;2022-08-04T00:04:11;100474.00;;;17.12;47.72
46241;BME280;31961;52.416;-0.732;2022-08-04T00:06:48;100474.24;;;17.93;46.23
46241;BME280;31961;52.416;-0.732;2022-08-04T00:09:27;100470.31;;;18.17;45.80
46241;BME280;31961;52.416;-0.732;2022-08-04T00:11:57;100481.21;;;17.93;46.20
46241;BME280;31961;52.416;-0.732;2022-08-04T00:14:29;100480.06;;;17.64;47.02
46241;BME280;31961;52.416;-0.732;2022-08-04T00:17:03;100480.01;;;17.43;47.54
46241;BME280;31961;52.416;-0.732;2022-08-04T00:19:37;100481.81;;;16.79;48.34
46241;BME280;31961;52.416;-0.732;2022-08-04T00:22:09;100483.02;;;17.07;48.74
46241;BME280;31961;52.416;-0.732;2022-08-04T00:24:37;100485.08;;;17.02;48.76
46241;BME280;31961;52.416;-0.732;2022-08-04T00:27:07;100485.45;;;16.96;49.39
46241;BME280;31961;52.416;-0.732;2022-08-04T00:29:37;100484.74;;;16.70;49.82
46241;BME280;31961;52.416;-0.732;2022-08-04T00:32:06;100481.38;;;15.94;51.52
46241;BME280;31961;52.416;-0.732;2022-08-04T00:34:34;100477.07;;;16.21;51.15
46241;BME280;31961;52.416;-0.732;2022-08-04T00:37:03;100473.80;;;16.04;51.49
46241;BME280;31961;52.416;-0.732;2022-08-04T00:39:31;100480.71;;;16.42;50.63
46241;BME280;31961;52.416;-0.732;2022-08-04T00:42:15;100481.34;;;16.40;49.71
46241;BME280;31961;52.416;-0.732;2022-08-04T00:45:00;100480.30;;;16.73;49.03
46241;BME280;31961;52.416;-0.732;2022-08-04T00:47:43;100479.22;;;16.23;50.64
46241;BME280;31961;52.416;-0.732;2022-08-04T00:50:20;100477.81;;;15.93;51.51
46241;BME280;31961;52.416;-0.732;2022-08-04T00:53:00;100476.68;;;16.21;50.96
46241;BME280;31961;52.416;-0.732;2022-08-04T00:55:43;100477.18;;;15.36;52.68
46241;BME280;31961;52.416;-0.732;2022-08-04T00:58:26;100476.28;;;15.27;52.89
46241;BME280;31961;52.416;-0.732;2022-08-04T01:00:59;100470.44;;;15.39;52.50
46241;BME280;31961;52.416;-0.732;2022-08-04T01:03:47;100471.40;;;15.17;52.19
46241;BME280;31961;52.416;-0.732;2022-08-04T01:06:23;100469.51;;;14.84;53.32
46241;BME280;31961;52.416;-0.732;2022-08-04T01:09:06;100473.30;;;15.24;53.33
46241;BME280;31961;52.416;-0.732;2022-08-04T01:11:50;100476.97;;;14.78;53.74
46241;BME280;31961;52.416;-0.732;2022-08-04T01:14:35;100472.87;;;14.42;55.05
46241;BME280;31961;52.416;-0.732;2022-08-04T01:17:18;100472.09;;;14.55;54.48
46241;BME280;31961;52.416;-0.732;2022-08-04T01:19:56;100472.97;;;14.22;54.91
46241;BME280;31961;52.416;-0.732;2022-08-04T01:23:20;100473.68;;;14.55;55.06
46241;BME280;31961;52.416;-0.732;2022-08-04T01:26:09;100466.53;;;15.59;52.89
46241;BME280;31961;52.416;-0.732;2022-08-04T01:29:02;100470.01;;;14.95;53.23
46241;BME280;31961;52.416;-0.732;2022-08-04T01:31:36;100464.54;;;15.21;52.65
46241;BME280;31961;52.416;-0.732;2022-08-04T01:34:10;100465.76;;;14.87;53.14
46241;BME280;31961;52.416;-0.732;2022-08-04T01:36:44;100465.42;;;14.92;53.31
46241;BME280;31961;52.416;-0.732;2022-08-04T01:39:13;100462.75;;;14.83;52.79
46241;BME280;31961;52.416;-0.732;2022-08-04T01:41:41;100466.44;;;14.68;53.34
46241;BME280;31961;52.416;-0.732;2022-08-04T01:44:09;100467.79;;;14.39;54.88
46241;BME280;31961;52.416;-0.732;2022-08-04T01:46:39;100463.05;;;14.74;53.64
46241;BME280;31961;52.416;-0.732;2022-08-04T01:49:07;100465.94;;;14.24;54.41
46241;BME280;31961;52.416;-0.732;2022-08-04T01:51:38;100467.78;;;14.85;53.45
46241;BME280;31961;52.416;-0.732;2022-08-04T01:54:07;100463.96;;;14.70;53.39
46241;BME280;31961;52.416;-0.732;2022-08-04T01:56:35;100469.91;;;14.51;54.21
46241;BME280;31961;52.416;-0.732;2022-08-04T01:59:02;100467.75;;;14.32;54.64
46241;BME280;31961;52.416;-0.732;2022-08-04T02:01:35;100465.92;;;14.65;54.09
46241;BME280;31961;52.416;-0.732;2022-08-04T02:04:03;100460.44;;;14.65;53.81
46241;BME280;31961;52.416;-0.732;2022-08-04T02:06:34;100455.74;;;15.06;52.36
46241;BME280;31961;52.416;-0.732;2022-08-04T02:09:13;100454.91;;;14.72;52.91
46241;BME280;31961;52.416;-0.732;2022-08-04T02:11:46;100457.61;;;14.05;54.86
46241;BME280;31961;52.416;-0.732;2022-08-04T02:14:23;100456.17;;;14.15;54.86
46241;BME280;31961;52.416;-0.732;2022-08-04T02:16:51;100454.99;;;13.64;55.57
46241;BME280;31961;52.416;-0.732;2022-08-04T02:19:25;100449.64;;;13.71;56.47
46241;BME280;31961;52.416;-0.732;2022-08-04T02:22:03;100448.40;;;13.45;56.45
46241;BME280;31961;52.416;-0.732;2022-08-04T02:24:39;100450.52;;;12.87;58.39
46241;BME280;31961;52.416;-0.732;2022-08-04T02:27:10;100445.63;;;13.17;57.31
46241;BME280;31961;52.416;-0.732;2022-08-04T02:29:44;100439.07;;;13.93;56.55
46241;BME280;31961;52.416;-0.732;2022-08-04T02:32:18;100432.33;;;13.99;55.51
46241;BME280;31961;52.416;-0.732;2022-08-04T02:34:54;100429.58;;;13.26;57.16
46241;BME280;31961;52.416;-0.732;2022-08-04T02:37:23;100433.24;;;13.61;56.12
46241;BME280;31961;52.416;-0.732;2022-08-04T02:39:53;100436.32;;;13.94;55.71
46241;BME280;31961;52.416;-0.732;2022-08-04T02:42:21;100446.20;;;13.01;57.95
46241;BME280;31961;52.416;-0.732;2022-08-04T02:44:49;100442.58;;;13.50;57.00
46241;BME280;31961;52.416;-0.732;2022-08-04T02:47:19;100436.84;;;13.57;56.36
46241;BME280;31961;52.416;-0.732;2022-08-04T02:49:50;100438.18;;;13.34;56.41
46241;BME280;31961;52.416;-0.732;2022-08-04T02:52:18;100437.12;;;14.16;55.24
46241;BME280;31961;52.416;-0.732;2022-08-04T02:54:50;100441.97;;;13.47;56.09
46241;BME280;31961;52.416;-0.732;2022-08-04T02:57:18;100440.99;;;13.52;56.24
46241;BME280;31961;52.416;-0.732;2022-08-04T02:59:59;100442.71;;;13.43;56.72
46241;BME280;31961;52.416;-0.732;2022-08-04T03:02:37;100444.30;;;12.62;59.04
46241;BME280;31961;52.416;-0.732;2022-08-04T03:05:15;100436.57;;;13.57;56.62
46241;BME280;31961;52.416;-0.732;2022-08-04T03:07:58;100434.76;;;14.38;54.99
46241;BME280;31961;52.416;-0.732;2022-08-04T03:10:56;100432.09;;;14.63;53.96
46241;BME280;31961;52.416;-0.732;2022-08-04T03:13:38;100441.85;;;13.55;55.53
46241;BME280;31961;52.416;-0.732;2022-08-04T03:16:29;100445.60;;;13.16;56.46
46241;BME280;31961;52.416;-0.732;2022-08-04T03:24:48;100444.40;;;14.94;54.10
46241;BME280;31961;52.416;-0.732;2022-08-04T03:27:33;100445.41;;;14.33;52.95
46241;BME280;31961;52.416;-0.732;2022-08-04T03:30:07;100447.09;;;14.83;52.34
46241;BME280;31961;52.416;-0.732;2022-08-04T03:35:02;100449.89;;;15.17;53.10
46241;BME280;31961;52.416;-0.732;2022-08-04T03:38:04;100447.63;;;15.06;52.60
46241;BME280;31961;52.416;-0.732;2022-08-04T03:40:48;100445.31;;;14.91;52.12
46241;BME280;31961;52.416;-0.732;2022-08-04T03:43:58;100446.79;;;15.28;52.09
46241;BME280;31961;52.416;-0.732;2022-08-04T03:49:03;100456.36;;;15.13;53.34
46241;BME280;31961;52.416;-0.732;2022-08-04T03:51:42;100456.77;;;14.95;52.66
46241;BME280;31961;52.416;-0.732;2022-08-04T03:54:30;100457.26;;;14.86;52.50
46241;BME280;31961;52.416;-0.732;2022-08-04T03:58:17;100462.54;;;14.80;53.17
46241;BME280;31961;52.416;-0.732;2022-08-04T04:01:00;100463.49;;;14.98;53.00
46241;BME280;31961;52.416;-0.732;2022-08-04T04:03:46;100468.29;;;15.00;52.42
46241;BME280;31961;52.416;-0.732;2022-08-04T04:06:46;100467.47;;;14.95;52.16
46241;BME280;31961;52.416;-0.732;2022-08-04T04:09:27;100464.87;;;15.09;52.12
46241;BME280;31961;52.416;-0.732;2022-08-04T04:12:48;100466.53;;;15.14;52.79
46241;BME280;31961;52.416;-0.732;2022-08-04T04:15:29;100471.24;;;14.87;53.05
46241;BME280;31961;52.416;-0.732;2022-08-04T04:18:15;100474.94;;;15.24;52.44
46241;BME280;31961;52.416;-0.732;2022-08-04T04:20:55;100477.80;;;15.20;52.63
46241;BME280;31961;52.416;-0.732;2022-08-04T04:23:30;100477.77;;;15.19;52.32
46241;BME280;31961;52.416;-0.732;2022-08-04T04:26:19;100477.14;;;15.36;51.83
46241;BME280;31961;52.416;-0.732;2022-08-04T04:29:05;100478.07;;;15.74;51.18
46241;BME280;31961;52.416;-0.732;2022-08-04T04:31:51;100479.62;;;14.52;53.56
46241;BME280;31961;52.416;-0.732;2022-08-04T04:34:33;100482.46;;;15.09;53.17
46241;BME280;31961;52.416;-0.732;2022-08-04T04:37:16;100479.28;;;14.48;53.65
46241;BME280;31961;52.416;-0.732;2022-08-04T04:39:56;100477.40;;;14.69;54.07
46241;BME280;31961;52.416;-0.732;2022-08-04T04:42:42;100473.94;;;14.89;53.68
46241;BME280;31961;52.416;-0.732;2022-08-04T04:45:20;100473.99;;;14.83;53.27
46241;BME280;31961;52.416;-0.732;2022-08-04T04:47:54;100469.47;;;15.20;52.69
46241;BME280;31961;52.416;-0.732;2022-08-04T04:50:31;100476.21;;;14.83;53.48
46241;BME280;31961;52.416;-0.732;2022-08-04T04:53:08;100487.01;;;14.78;53.51
46241;BME280;31961;52.416;-0.732;2022-08-04T04:55:42;100487.65;;;14.81;54.35
46241;BME280;31961;52.416;-0.732;2022-08-04T04:58:13;100482.73;;;15.30;52.89
46241;BME280;31961;52.416;-0.732;2022-08-04T05:00:54;100481.20;;;15.40;52.59
46241;BME280;31961;52.416;-0.732;2022-08-04T05:03:37;100480.80;;;15.00;53.44
46241;BME280;31961;52.416;-0.732;2022-08-04T05:06:26;100481.09;;;15.20;52.81
46241;BME280;31961;52.416;-0.732;2022-08-04T05:09:11;100481.03;;;15.83;52.35
46241;BME280;31961;52.416;-0.732;2022-08-04T05:11:53;100487.02;;;15.24;53.30
46241;BME280;31961;52.416;-0.732;2022-08-04T05:14:28;100487.41;;;15.68;53.48
46241;BME280;31961;52.416;-0.732;2022-08-04T05:17:02;100491.93;;;15.15;53.73
46241;BME280;31961;52.416;-0.732;2022-08-04T05:19:41;100494.06;;;14.58;54.66
46241;BME280;31961;52.416;-0.732;2022-08-04T05:22:17;100496.94;;;14.14;56.00
46241;BME280;31961;52.416;-0.732;2022-08-04T05:24:47;100504.83;;;14.71;55.38
46241;BME280;31961;52.416;-0.732;2022-08-04T05:27:19;100506.59;;;14.62;55.61
46241;BME280;31961;52.416;-0.732;2022-08-04T05:29:52;100508.27;;;14.16;56.04
46241;BME280;31961;52.416;-0.732;2022-08-04T05:32:25;100510.95;;;13.76;57.31
46241;BME280;31961;52.416;-0.732;2022-08-04T05:34:59;100508.77;;;14.11;57.97
46241;BME280;31961;52.416;-0.732;2022-08-04T05:37:29;100510.05;;;14.09;57.88
46241;BME280;31961;52.416;-0.732;2022-08-04T05:40:02;100511.22;;;13.82;58.69
46241;BME280;31961;52.416;-0.732;2022-08-04T05:42:31;100515.77;;;14.37;57.98
46241;BME280;31961;52.416;-0.732;2022-08-04T05:44:59;100523.50;;;13.40;60.72
46241;BME280;31961;52.416;-0.732;2022-08-04T05:47:27;100532.84;;;12.92;62.42
46241;BME280;31961;52.416;-0.732;2022-08-04T05:49:55;100535.68;;;12.49;64.47
46241;BME280;31961;52.416;-0.732;2022-08-04T05:52:24;100532.69;;;12.37;65.62
46241;BME280;31961;52.416;-0.732;2022-08-04T05:54:53;100533.15;;;11.83;66.42
46241;BME280;31961;52.416;-0.732;2022-08-04T05:57:21;100531.97;;;13.36;62.44
46241;BME280;31961;52.416;-0.732;2022-08-04T05:59:50;100533.52;;;13.07;62.70
46241;BME280;31961;52.416;-0.732;2022-08-04T06:02:18;100541.38;;;11.90;65.81
46241;BME280;31961;52.416;-0.732;2022-08-04T06:04:49;100541.38;;;12.07;66.65
46241;BME280;31961;52.416;-0.732;2022-08-04T06:07:16;100540.85;;;12.91;64.11
46241;BME280;31961;52.416;-0.732;2022-08-04T06:09:44;100540.47;;;13.23;64.03
46241;BME280;31961;52.416;-0.732;2022-08-04T06:12:16;100545.40;;;13.32;63.85
46241;BME280;31961;52.416;-0.732;2022-08-04T06:14:47;100547.45;;;13.07;64.14
46241;BME280;31961;52.416;-0.732;2022-08-04T06:17:30;100548.33;;;12.89;64.97
46241;BME280;31961;52.416;-0.732;2022-08-04T06:20:00;100553.82;;;12.99;65.99
46241;BME280;31961;52.416;-0.732;2022-08-04T06:22:29;100559.86;;;12.05;68.32
46241;BME280;31961;52.416;-0.732;2022-08-04T06:25:00;100560.98;;;12.12;68.62
46241;BME280;31961;52.416;-0.732;2022-08-04T06:27:29;100563.73;;;12.20;68.54
46241;BME280;31961;52.416;-0.732;2022-08-04T06:29:58;100567.99;;;12.01;69.39
46241;BME280;31961;52.416;-0.732;2022-08-04T06:32:28;100568.24;;;12.31;69.81
46241;BME280;31961;52.416;-0.732;2022-08-04T06:34:58;100567.32;;;11.66;71.02
46241;BME280;31961;52.416;-0.732;2022-08-04T06:37:26;100566.72;;;12.00;68.64
46241;BME280;31961;52.416;-0.732;2022-08-04T06:39:54;100566.62;;;12.11;68.39
46241;BME280;31961;52.416;-0.732;2022-08-04T06:42:25;100570.31;;;12.96;67.23
46241;BME280;31961;52.416;-0.732;2022-08-04T06:44:55;100574.02;;;12.44;68.08
46241;BME280;31961;52.416;-0.732;2022-08-04T06:47:23;100575.30;;;11.80;70.03
46241;BME280;31961;52.416;-0.732;2022-08-04T06:49:54;100574.06;;;12.53;69.36
46241;BME280;31961;52.416;-0.732;2022-08-04T06:52:21;100577.87;;;12.31;70.58
46241;BME280;31961;52.416;-0.732;2022-08-04T06:54:50;100577.97;;;12.73;69.11
46241;BME280;31961;52.416;-0.732;2022-08-04T06:57:21;100582.40;;;12.54;69.04
46241;BME280;31961;52.416;-0.732;2022-08-04T06:59:52;100584.41;;;12.80;69.12
46241;BME280;31961;52.416;-0.732;2022-08-04T07:02:25;100588.83;;;12.66;68.18
46241;BME280;31961;52.416;-0.732;2022-08-04T07:04:54;100588.38;;;12.60;68.99
46241;BME280;31961;52.416;-0.732;2022-08-04T07:07:23;100591.49;;;12.99;68.28
46241;BME280;31961;52.416;-0.732;2022-08-04T07:09:50;100592.74;;;13.30;67.81
46241;BME280;31961;52.416;-0.732;2022-08-04T07:12:19;100593.71;;;12.90;68.97
46241;BME280;31961;52.416;-0.732;2022-08-04T07:14:49;100593.60;;;12.55;69.80
46241;BME280;31961;52.416;-0.732;2022-08-04T07:17:17;100599.07;;;12.40;69.98
46241;BME280;31961;52.416;-0.732;2022-08-04T07:19:46;100604.82;;;13.07;68.78
46241;BME280;31961;52.416;-0.732;2022-08-04T07:22:14;100605.14;;;12.75;69.81
46241;BME280;31961;52.416;-0.732;2022-08-04T07:24:42;100611.97;;;13.39;68.71
46241;BME280;31961;52.416;-0.732;2022-08-04T07:27:09;100614.78;;;13.09;69.30
46241;BME280;31961;52.416;-0.732;2022-08-04T07:29:37;100611.94;;;13.57;68.08
46241;BME280;31961;52.416;-0.732;2022-08-04T07:32:06;100609.66;;;13.96;66.59
46241;BME280;31961;52.416;-0.732;2022-08-04T07:34:36;100617.50;;;13.21;68.21
46241;BME280;31961;52.416;-0.732;2022-08-04T07:37:04;100626.05;;;13.40;68.31
46241;BME280;31961;52.416;-0.732;2022-08-04T07:39:31;100617.63;;;13.87;66.65
46241;BME280;31961;52.416;-0.732;2022-08-04T07:42:00;100620.22;;;14.03;65.68
46241;BME280;31961;52.416;-0.732;2022-08-04T07:44:29;100615.71;;;13.53;66.47
46241;BME280;31961;52.416;-0.732;2022-08-04T07:46:56;100623.93;;;13.43;67.42
46241;BME280;31961;52.416;-0.732;2022-08-04T07:49:24;100624.50;;;13.91;66.34
46241;BME280;31961;52.416;-0.732;2022-08-04T07:51:53;100624.23;;;14.24;65.51
46241;BME280;31961;52.416;-0.732;2022-08-04T07:54:20;100630.01;;;14.20;65.17
46241;BME280;31961;52.416;-0.732;2022-08-04T07:56:47;100624.04;;;13.70;65.19
46241;BME280;31961;52.416;-0.732;2022-08-04T07:59:16;100623.74;;;14.33;64.28
46241;BME280;31961;52.416;-0.732;2022-08-04T08:01:43;100629.95;;;13.62;64.98
46241;BME280;31961;52.416;-0.732;2022-08-04T08:04:12;100627.54;;;13.99;64.71
46241;BME280;31961;52.416;-0.732;2022-08-04T08:06:41;100626.14;;;13.55;65.35
46241;BME280;31961;52.416;-0.732;2022-08-04T08:09:10;100627.06;;;14.28;63.58
46241;BME280;31961;52.416;-0.732;2022-08-04T08:11:38;100623.51;;;14.34;63.48
46241;BME280;31961;52.416;-0.732;2022-08-04T08:14:05;100629.56;;;14.77;62.67
46241;BME280;31961;52.416;-0.732;2022-08-04T08:16:33;100629.18;;;14.36;62.31
46241;BME280;31961;52.416;-0.732;2022-08-04T08:19:00;100627.92;;;14.41;62.90
46241;BME280;31961;52.416;-0.732;2022-08-04T08:21:28;100632.50;;;13.88;64.26
46241;BME280;31961;52.416;-0.732;2022-08-04T08:23:56;100634.65;;;14.19;63.49
46241;BME280;31961;52.416;-0.732;2022-08-04T08:26:23;100636.16;;;13.45;64.00
46241;BME280;31961;52.416;-0.732;2022-08-04T08:28:51;100634.99;;;13.96;62.39
46241;BME280;31961;52.416;-0.732;2022-08-04T08:31:18;100636.28;;;14.11;61.72
46241;BME280;31961;52.416;-0.732;2022-08-04T08:33:46;100639.55;;;14.12;62.32
46241;BME280;31961;52.416;-0.732;2022-08-04T08:36:18;100646.47;;;13.51;62.96
46241;BME280;31961;52.416;-0.732;2022-08-04T08:38:52;100646.76;;;14.19;62.04
46241;BME280;31961;52.416;-0.732;2022-08-04T08:43:02;100640.90;;;14.35;61.81
46241;BME280;31961;52.416;-0.732;2022-08-04T08:45:54;100644.82;;;14.41;60.50
46241;BME280;31961;52.416;-0.732;2022-08-04T08:49:46;100644.61;;;14.43;61.71
46241;BME280;31961;52.416;-0.732;2022-08-04T08:52:29;100650.19;;;14.21;61.71
46241;BME280;31961;52.416;-0.732;2022-08-04T08:55:14;100644.92;;;14.38;62.01
46241;BME280;31961;52.416;-0.732;2022-08-04T08:57:57;100642.39;;;14.37;60.60
46241;BME280;31961;52.416;-0.732;2022-08-04T09:00:34;100645.74;;;14.83;60.13
46241;BME280;31961;52.416;-0.732;2022-08-04T09:03:26;100646.06;;;14.61;59.78
46241;BME280;31961;52.416;-0.732;2022-08-04T09:06:24;100650.54;;;14.79;60.63
46241;BME280;31961;52.416;-0.732;2022-08-04T09:09:03;100646.99;;;14.78;60.02
46241;BME280;31961;52.416;-0.732;2022-08-04T09:11:43;100643.85;;;15.12;58.97
46241;BME280;31961;52.416;-0.732;2022-08-04T09:14:18;100644.43;;;14.72;59.34
46241;BME280;31961;52.416;-0.732;2022-08-04T09:16:50;100642.07;;;14.90;60.62
46241;BME280;31961;52.416;-0.732;2022-08-04T09:19:22;100644.53;;;14.89;60.61
46241;BME280;31961;52.416;-0.732;2022-08-04T09:21:55;100640.18;;;15.23;59.45
46241;BME280;31961;52.416;-0.732;2022-08-04T09:24:28;100638.67;;;15.10;59.09
46241;BME280;31961;52.416;-0.732;2022-08-04T09:26:59;100637.04;;;15.40;56.57
46241;BME280;31961;52.416;-0.732;2022-08-04T09:29:36;100640.13;;;15.44;56.18
46241;BME280;31961;52.416;-0.732;2022-08-04T09:32:10;100645.41;;;15.50;55.69
46241;BME280;31961;52.416;-0.732;2022-08-04T09:34:48;100656.70;;;14.44;58.94
46241;BME280;31961;52.416;-0.732;2022-08-04T09:37:29;100661.87;;;15.03;58.16
46241;BME280;31961;52.416;-0.732;2022-08-04T09:40:04;100659.50;;;14.81;58.93
46241;BME280;31961;52.416;-0.732;2022-08-04T09:42:39;100643.16;;;15.28;56.55
46241;BME280;31961;52.416;-0.732;2022-08-04T09:45:15;100644.32;;;15.61;55.66
46241;BME280;31961;52.416;-0.732;2022-08-04T09:47:48;100643.95;;;15.52;56.26
46241;BME280;31961;52.416;-0.732;2022-08-04T09:50:29;100644.13;;;15.51;55.01
46241;BME280;31961;52.416;-0.732;2022-08-04T09:53:10;100643.41;;;15.81;55.28
46241;BME280;31961;52.416;-0.732;2022-08-04T09:55:51;100641.49;;;15.67;54.66
46241;BME280;31961;52.416;-0.732;2022-08-04T09:58:32;100642.18;;;15.79;53.17
46241;BME280;31961;52.416;-0.732;2022-08-04T10:01:08;100648.30;;;15.39;52.94
46241;BME280;31961;52.416;-0.732;2022-08-04T10:03:39;100652.94;;;15.30;54.86
46241;BME280;31961;52.416;-0.732;2022-08-04T10:06:16;100644.24;;;15.59;54.41
46241;BME280;31961;52.416;-0.732;2022-08-04T10:09:00;100654.09;;;16.07;52.14
46241;BME280;31961;52.416;-0.732;2022-08-04T10:11:44;100652.85;;;15.66;51.16
46241;BME280;31961;52.416;-0.732;2022-08-04T10:14:34;100648.69;;;16.25;50.79
46241;BME280;31961;52.416;-0.732;2022-08-04T10:17:18;100654.62;;;16.52;50.47
46241;BME280;31961;52.416;-0.732;2022-08-04T10:19:59;100649.38;;;16.26;51.08
46241;BME280;31961;52.416;-0.732;2022-08-04T10:22:36;100650.25;;;16.99;48.93
46241;BME280;31961;52.416;-0.732;2022-08-04T10:25:16;100651.95;;;16.68;46.92
46241;BME280;31961;52.416;-0.732;2022-08-04T10:27:51;100644.88;;;17.16;46.05
46241;BME280;31961;52.416;-0.732;2022-08-04T10:30:20;100643.44;;;16.88;46.09
46241;BME280;31961;52.416;-0.732;2022-08-04T10:32:52;100643.96;;;17.65;45.22
46241;BME280;31961;52.416;-0.732;2022-08-04T10:35:23;100644.51;;;17.49;45.94
46241;BME280;31961;52.416;-0.732;2022-08-04T10:37:59;100651.26;;;17.63;45.61
46241;BME280;31961;52.416;-0.732;2022-08-04T10:40:33;100653.68;;;17.25;46.19
46241;BME280;31961;52.416;-0.732;2022-08-04T10:43:08;100661.40;;;16.93;43.14
46241;BME280;31961;52.416;-0.732;2022-08-04T10:45:40;100656.76;;;16.54;43.38
46241;BME280;31961;52.416;-0.732;2022-08-04T10:48:17;100657.31;;;17.20;42.59
46241;BME280;31961;52.416;-0.732;2022-08-04T10:51:01;100668.74;;;16.97;44.52
46241;BME280;31961;52.416;-0.732;2022-08-04T10:53:29;100674.75;;;16.92;44.96
46241;BME280;31961;52.416;-0.732;2022-08-04T10:56:02;100679.58;;;16.73;43.86
46241;BME280;31961;52.416;-0.732;2022-08-04T10:58:38;100676.57;;;16.92;44.23
46241;BME280;31961;52.416;-0.732;2022-08-04T11:01:16;100683.83;;;16.17;44.33
46241;BME280;31961;52.416;-0.732;2022-08-04T11:03:50;100668.00;;;17.48;41.55
46241;BME280;31961;52.416;-0.732;2022-08-04T11:06:23;100671.44;;;17.98;41.38
46241;BME280;31961;52.416;-0.732;2022-08-04T11:08:53;100679.05;;;17.51;41.76
46241;BME280;31961;52.416;-0.732;2022-08-04T11:11:29;100679.44;;;17.46;41.85
46241;BME280;31961;52.416;-0.732;2022-08-04T11:14:01;100684.85;;;17.41;41.04
46241;BME280;31961;52.416;-0.732;2022-08-04T11:16:40;100683.95;;;17.30;40.59
46241;BME280;31961;52.416;-0.732;2022-08-04T11:19:19;100687.90;;;18.50;37.98
46241;BME280;31961;52.416;-0.732;2022-08-04T11:21:54;100691.22;;;18.12;39.05
46241;BME280;31961;52.416;-0.732;2022-08-04T11:24:26;100693.91;;;17.68;40.17
46241;BME280;31961;52.416;-0.732;2022-08-04T11:27:05;100695.57;;;17.75;40.93
46241;BME280;31961;52.416;-0.732;2022-08-04T11:29:40;100708.40;;;17.86;40.79
46241;BME280;31961;52.416;-0.732;2022-08-04T11:32:17;100698.76;;;17.02;41.13
46241;BME280;31961;52.416;-0.732;2022-08-04T11:34:48;100703.74;;;17.42;41.53
46241;BME280;31961;52.416;-0.732;2022-08-04T11:37:22;100708.37;;;16.78;42.34
46241;BME280;31961;52.416;-0.732;2022-08-04T11:39:58;100710.04;;;16.93;42.00
46241;BME280;31961;52.416;-0.732;2022-08-04T11:42:27;100709.75;;;17.10;40.40
46241;BME280;31961;52.416;-0.732;2022-08-04T11:45:00;100708.63;;;17.47;39.93
46241;BME280;31961;52.416;-0.732;2022-08-04T11:47:32;100722.73;;;17.01;39.85
46241;BME280;31961;52.416;-0.732;2022-08-04T11:50:03;100720.94;;;16.95;39.31
46241;BME280;31961;52.416;-0.732;2022-08-04T11:52:33;100713.92;;;17.25;39.25
46241;BME280;31961;52.416;-0.732;2022-08-04T11:55:04;100705.48;;;17.59;38.86
46241;BME280;31961;52.416;-0.732;2022-08-04T11:57:32;100712.44;;;17.80;38.37
46241;BME280;31961;52.416;-0.732;2022-08-04T12:00:03;100725.39;;;17.61;38.83
46241;BME280;31961;52.416;-0.732;2022-08-04T12:03:44;100720.18;;;17.42;38.26
46241;BME280;31961;52.416;-0.732;2022-08-04T12:06:17;100718.29;;;17.47;37.55
46241;BME280;31961;52.416;-0.732;2022-08-04T12:08:59;100713.77;;;17.94;37.25
46241;BME280;31961;52.416;-0.732;2022-08-04T12:11:42;100714.56;;;17.98;37.45
46241;BME280;31961;52.416;-0.732;2022-08-04T12:14:24;100715.32;;;18.20;36.61
46241;BME280;31961;52.416;-0.732;2022-08-04T12:16:58;100712.63;;;18.97;35.30
46241;BME280;31961;52.416;-0.732;2022-08-04T12:19:31;100711.13;;;17.61;36.33
46241;BME280;31961;52.416;-0.732;2022-08-04T12:22:04;100717.79;;;18.52;35.62
46241;BME280;31961;52.416;-0.732;2022-08-04T12:24:38;100726.51;;;18.50;34.72
46241;BME280;31961;52.416;-0.732;2022-08-04T12:27:12;100717.25;;;18.71;35.86
46241;BME280;31961;52.416;-0.732;2022-08-04T12:29:42;100726.41;;;19.27;34.64
46241;BME280;31961;52.416;-0.732;2022-08-04T12:32:20;100723.23;;;18.72;35.29
46241;BME280;31961;52.416;-0.732;2022-08-04T12:34:57;100719.31;;;18.50;35.37
46241;BME280;31961;52.416;-0.732;2022-08-04T12:37:35;100731.80;;;18.10;35.34
46241;BME280;31961;52.416;-0.732;2022-08-04T12:40:12;100733.22;;;18.10;36.32
46241;BME280;31961;52.416;-0.732;2022-08-04T12:42:46;100737.78;;;18.04;36.75
46241;BME280;31961;52.416;-0.732;2022-08-04T12:45:18;100736.36;;;18.54;35.59
46241;BME280;31961;52.416;-0.732;2022-08-04T12:47:49;100733.36;;;19.11;35.24
46241;BME280;31961;52.416;-0.732;2022-08-04T12:50:19;100734.21;;;18.82;34.39
46241;BME280;31961;52.416;-0.732;2022-08-04T12:52:51;100735.72;;;18.71;34.36
46241;BME280;31961;52.416;-0.732;2022-08-04T12:55:23;100729.45;;;17.94;35.98
46241;BME280;31961;52.416;-0.732;2022-08-04T12:57:52;100741.14;;;18.05;36.48
46241;BME280;31961;52.416;-0.732;2022-08-04T13:00:25;100738.30;;;18.11;36.86
46241;BME280;31961;52.416;-0.732;2022-08-04T13:02:53;100742.85;;;18.30;36.65
46241;BME280;31961;52.416;-0.732;2022-08-04T13:05:25;100738.69;;;18.78;35.05
46241;BME280;31961;52.416;-0.732;2022-08-04T13:07:53;100760.67;;;19.16;34.29
46241;BME280;31961;52.416;-0.732;2022-08-04T13:10:23;100741.55;;;19.27;34.45
46241;BME280;31961;52.416;-0.732;2022-08-04T13:12:54;100744.47;;;19.55;33.99
46241;BME280;31961;52.416;-0.732;2022-08-04T13:15:24;100737.18;;;19.61;33.45
46241;BME280;31961;52.416;-0.732;2022-08-04T13:17:55;100748.07;;;19.43;34.04
46241;BME280;31961;52.416;-0.732;2022-08-04T13:20:25;100756.47;;;18.79;34.79
46241;BME280;31961;52.416;-0.732;2022-08-04T13:23:12;100749.48;;;18.74;34.96
46241;BME280;31961;52.416;-0.732;2022-08-04T13:25:43;100737.82;;;18.97;34.64
46241;BME280;31961;52.416;-0.732;2022-08-04T13:28:14;100743.19;;;18.69;34.00
46241;BME280;31961;52.416;-0.732;2022-08-04T13:30:44;100746.45;;;18.63;35.27
46241;BME280;31961;52.416;-0.732;2022-08-04T13:33:12;100752.13;;;19.71;33.56
46241;BME280;31961;52.416;-0.732;2022-08-04T13:35:43;100756.57;;;19.48;33.78